createdAt,value
2023-01-01T00:01:24.984Z,13.25
2023-01-01T00:03:52.635Z,12.85
2023-01-01T00:06:19.739Z,11.43
2023-01-01T00:08:46.781Z,11.13
2023-01-01T00:11:14.141Z,11.52
2023-01-01T00:13:42.026Z,11.30
2023-01-01T00:16:11.837Z,11.32
2023-01-01T00:18:38.913Z,10.38
2023-01-01T00:21:12.730Z,12.45
2023-01-01T00:23:39.610Z,11.75
2023-01-01T00:26:13.607Z,11.82
2023-01-01T00:28:40.170Z,13.48
2023-01-01T00:31:11.350Z,12.25
2023-01-01T00:33:37.751Z,12.27
2023-01-01T00:36:08.756Z,11.85
2023-01-01T00:38:35.804Z,11.30
2023-01-01T00:41:02.251Z,13.02
2023-01-01T00:43:28.715Z,9.25
2023-01-01T00:45:55.505Z,8.30
2023-01-01T00:48:22.088Z,8.82
2023-01-01T00:50:49.592Z,8.40
2023-01-01T00:53:16.196Z,8.35
2023-01-01T00:55:44.255Z,8.20
2023-01-01T00:58:11.319Z,9.10
2023-01-01T01:00:38.270Z,12.02
2023-01-01T01:03:04.729Z,10.88
2023-01-01T01:05:32.146Z,8.18
2023-01-01T01:07:59.426Z,8.02
2023-01-01T01:10:26.337Z,14.60
2023-01-01T01:12:53.330Z,10.02
2023-01-01T01:15:20.175Z,9.80
2023-01-01T01:17:47.212Z,8.60
2023-01-01T01:20:13.762Z,7.95
2023-01-01T01:22:40.182Z,7.45
2023-01-01T01:25:07.653Z,6.85
2023-01-01T01:27:34.223Z,6.30
2023-01-01T01:30:00.585Z,6.20
2023-01-01T01:32:26.998Z,7.22
2023-01-01T01:34:53.542Z,8.55
2023-01-01T01:37:20.262Z,7.97
2023-01-01T01:39:51.718Z,6.40
2023-01-01T01:42:20.306Z,6.20
2023-01-01T01:44:49.546Z,6.13
2023-01-01T01:47:20.801Z,6.68
2023-01-01T01:49:47.868Z,5.93
2023-01-01T01:52:15.041Z,5.75
2023-01-01T01:54:42.560Z,6.13
2023-01-01T01:57:13.661Z,5.75
2023-01-01T01:59:47.534Z,5.25
2023-01-01T02:02:27.140Z,5.32
2023-01-01T02:04:54.772Z,5.15
2023-01-01T02:07:22.867Z,4.85
2023-01-01T02:09:49.300Z,4.70
2023-01-01T02:12:15.730Z,4.65
2023-01-01T02:14:42.311Z,5.53
2023-01-01T02:17:15.522Z,4.22
2023-01-01T02:20:01.225Z,4.32
2023-01-01T02:22:37.993Z,3.97
2023-01-01T02:25:28.568Z,3.47
2023-01-01T02:28:23.068Z,3.80
2023-01-01T02:30:52.872Z,3.65
2023-01-01T02:33:27.899Z,3.35
2023-01-01T02:36:02.779Z,4.03
2023-01-01T02:38:39.820Z,2.78
2023-01-01T02:41:10.916Z,3.10
2023-01-01T02:43:37.995Z,2.30
2023-01-01T02:46:12.388Z,2.45
2023-01-01T02:48:49.448Z,2.28
2023-01-01T02:51:39.759Z,2.33
2023-01-01T02:54:16.604Z,3.15
2023-01-01T02:56:49.096Z,2.05
2023-01-01T02:59:45.393Z,2.10
2023-01-01T03:02:23.159Z,2.67
2023-01-01T03:05:10.966Z,2.17
2023-01-01T03:08:03.549Z,2.58
2023-01-01T03:10:57.951Z,2.22
2023-01-01T03:13:38.056Z,2.45
2023-01-01T03:16:11.583Z,1.83
2023-01-01T03:19:11.717Z,2.35
2023-01-01T03:21:55.055Z,3.25
2023-01-01T03:24:31.566Z,2.13
2023-01-01T03:27:04.151Z,2.10
2023-01-01T03:29:36.645Z,2.05
2023-01-01T03:32:06.334Z,2.13
2023-01-01T03:34:39.080Z,2.00
2023-01-01T03:37:10.052Z,2.13
2023-01-01T03:39:41.103Z,1.90
2023-01-01T03:42:29.016Z,1.85
2023-01-01T03:45:04.479Z,2.83
2023-01-01T03:47:31.337Z,1.65
2023-01-01T03:49:58.862Z,2.13
2023-01-01T03:52:38.611Z,1.85
2023-01-01T03:55:15.658Z,2.20
2023-01-01T03:58:08.099Z,1.70
2023-01-01T04:00:38.991Z,1.83
2023-01-01T04:03:18.506Z,1.80
2023-01-01T04:05:45.287Z,1.80
2023-01-01T04:08:14.667Z,1.70
2023-01-01T04:10:48.762Z,2.00
2023-01-01T04:13:15.648Z,1.80
2023-01-01T04:15:42.229Z,2.05
2023-01-01T04:18:09.177Z,1.80
2023-01-01T04:20:35.641Z,2.78
2023-01-01T04:23:03.956Z,1.70
2023-01-01T04:25:31.035Z,1.70
2023-01-01T04:28:03.432Z,1.42
2023-01-01T04:30:29.903Z,1.90
2023-01-01T04:32:56.543Z,1.60
2023-01-01T04:35:22.879Z,1.30
2023-01-01T04:37:49.405Z,1.60
2023-01-01T04:40:16.324Z,1.55
2023-01-01T04:42:43.406Z,1.58
2023-01-01T04:45:12.242Z,1.98
2023-01-01T04:47:38.993Z,1.58
2023-01-01T04:50:07.059Z,1.60
2023-01-01T04:52:33.750Z,1.55
2023-01-01T04:55:00.130Z,2.05
2023-01-01T04:57:28.924Z,1.60
2023-01-01T04:59:55.446Z,1.50
2023-01-01T05:02:21.982Z,1.70
2023-01-01T05:04:49.492Z,1.42
2023-01-01T05:07:16.670Z,1.70
2023-01-01T05:09:43.041Z,1.67
2023-01-01T05:12:09.569Z,1.50
2023-01-01T05:14:36.067Z,1.70
2023-01-01T05:17:02.393Z,1.50
2023-01-01T05:19:29.489Z,1.60
2023-01-01T05:21:56.031Z,1.88
2023-01-01T05:24:22.410Z,1.58
2023-01-01T05:26:49.187Z,2.17
2023-01-01T05:29:17.481Z,1.58
2023-01-01T05:34:11.114Z,1.27
2023-01-01T05:36:39.283Z,1.35
2023-01-01T05:39:08.140Z,1.25
2023-01-01T05:41:36.793Z,2.40
2023-01-01T05:44:05.860Z,1.77
2023-01-01T05:46:32.560Z,1.60
2023-01-01T05:48:59.200Z,1.70
2023-01-01T05:51:27.733Z,1.48
2023-01-01T05:56:21.259Z,1.83
2023-01-01T05:58:47.854Z,1.48
2023-01-01T06:01:19.586Z,2.08
2023-01-01T06:03:48.840Z,1.55
2023-01-01T06:06:18.783Z,1.58
2023-01-01T06:08:52.591Z,1.60
2023-01-01T06:11:20.172Z,1.65
2023-01-01T06:13:47.082Z,2.05
2023-01-01T06:16:14.173Z,2.03
2023-01-01T06:18:40.816Z,1.70
2023-01-01T06:21:15.691Z,1.70
2023-01-01T06:23:43.122Z,1.67
2023-01-01T06:26:17.914Z,1.50
2023-01-01T06:28:45.201Z,1.90
2023-01-01T06:31:14.361Z,1.58
2023-01-01T06:33:41.335Z,1.77
2023-01-01T06:36:10.229Z,1.52
2023-01-01T06:38:39.622Z,1.80
2023-01-01T06:41:13.076Z,1.88
2023-01-01T06:43:39.763Z,1.52
2023-01-01T06:46:17.838Z,1.65
2023-01-01T06:48:46.001Z,2.08
2023-01-01T06:51:15.044Z,1.95
2023-01-01T06:53:41.693Z,1.45
2023-01-01T06:56:09.027Z,1.67
2023-01-01T06:58:35.817Z,1.75
2023-01-01T07:01:16.231Z,1.63
2023-01-01T07:03:43.648Z,2.05
2023-01-01T07:06:10.734Z,1.65
2023-01-01T07:08:37.848Z,1.75
2023-01-01T07:11:04.338Z,1.73
2023-01-01T07:13:31.279Z,1.77
2023-01-01T07:15:57.853Z,1.70
2023-01-01T07:18:26.132Z,1.98
2023-01-01T07:20:54.638Z,1.40
2023-01-01T07:23:21.163Z,1.50
2023-01-01T07:25:50.172Z,1.50
2023-01-01T07:28:16.569Z,1.90
2023-01-01T07:30:43.060Z,1.60
2023-01-01T07:33:12.937Z,1.88
2023-01-01T07:35:40.069Z,1.55
2023-01-01T07:38:06.551Z,1.70
2023-01-01T07:40:33.169Z,1.90
2023-01-01T07:42:59.536Z,1.50
2023-01-01T07:45:26.084Z,2.85
2023-01-01T07:47:57.723Z,1.60
2023-01-01T07:50:26.648Z,1.80
2023-01-01T07:52:53.550Z,1.80
2023-01-01T07:55:20.770Z,1.70
2023-01-01T07:57:48.164Z,1.55
2023-01-01T08:00:17.989Z,2.10
2023-01-01T08:02:44.971Z,1.60
2023-01-01T08:05:11.587Z,1.63
2023-01-01T08:07:38.210Z,1.90
2023-01-01T08:10:06.140Z,1.88
2023-01-01T08:12:33.604Z,1.70
2023-01-01T08:15:01.198Z,2.30
2023-01-01T08:17:27.571Z,1.92
2023-01-01T08:19:53.936Z,2.13
2023-01-01T08:22:20.393Z,1.77
2023-01-01T08:24:46.915Z,1.95
2023-01-01T08:27:14.755Z,1.80
2023-01-01T08:29:41.648Z,1.95
2023-01-01T08:32:08.359Z,2.00
2023-01-01T08:34:34.763Z,2.00
2023-01-01T08:37:01.191Z,2.30
2023-01-01T08:39:29.147Z,1.45
2023-01-01T08:41:55.689Z,2.22
2023-01-01T08:44:22.920Z,2.88
2023-01-01T08:46:49.410Z,1.80
2023-01-01T08:49:15.815Z,1.90
2023-01-01T08:51:42.201Z,1.85
2023-01-01T08:54:08.638Z,1.70
2023-01-01T08:56:36.073Z,1.80
2023-01-01T08:59:04.570Z,2.15
2023-01-01T09:03:57.767Z,2.08
2023-01-01T09:06:24.307Z,2.50
2023-01-01T09:08:51.342Z,1.98
2023-01-01T09:11:23.694Z,2.00
2023-01-01T09:13:50.374Z,2.00
2023-01-01T09:16:17.018Z,1.80
2023-01-01T09:18:43.436Z,2.17
2023-01-01T09:21:09.837Z,2.33
2023-01-01T09:23:37.706Z,2.33
2023-01-01T09:26:09.235Z,2.22
2023-01-01T09:28:36.727Z,1.77
2023-01-01T09:31:06.522Z,2.00
2023-01-01T09:33:34.197Z,1.95
2023-01-01T09:36:29.187Z,2.40
2023-01-01T09:38:56.995Z,2.03
2023-01-01T09:41:51.555Z,1.85
2023-01-01T09:44:39.508Z,2.75
2023-01-01T09:47:20.799Z,1.90
2023-01-01T09:49:52.184Z,1.88
2023-01-01T09:52:20.320Z,2.00
2023-01-01T09:55:00.823Z,2.00
2023-01-01T09:57:32.226Z,2.00
2023-01-01T10:00:00.409Z,2.03
2023-01-01T10:02:39.852Z,2.22
2023-01-01T10:05:26.307Z,2.20
2023-01-01T10:08:14.935Z,2.00
2023-01-01T10:11:01.829Z,2.15
2023-01-01T10:13:42.315Z,1.88
2023-01-01T10:16:37.046Z,1.98
2023-01-01T10:19:13.426Z,2.00
2023-01-01T10:21:47.172Z,2.58
2023-01-01T10:24:32.584Z,1.95
2023-01-01T10:27:02.343Z,1.65
2023-01-01T10:29:40.846Z,1.88
2023-01-01T10:34:47.038Z,2.03
2023-01-01T10:37:15.356Z,1.75
2023-01-01T10:39:43.659Z,1.90
2023-01-01T10:42:14.784Z,1.67
2023-01-01T10:44:43.292Z,2.40
2023-01-01T10:47:21.093Z,1.40
2023-01-01T10:49:59.033Z,3.45
2023-01-01T10:52:36.629Z,1.73
2023-01-01T10:55:04.515Z,1.93
2023-01-01T10:57:34.787Z,1.92
2023-01-01T11:00:10.523Z,1.60
2023-01-01T11:02:37.414Z,1.73
2023-01-01T11:05:20.711Z,1.80
2023-01-01T11:07:48.590Z,1.67
2023-01-01T11:10:23.733Z,1.83
2023-01-01T11:13:06.953Z,1.85
2023-01-01T11:15:42.701Z,1.67
2023-01-01T11:18:22.175Z,2.67
2023-01-01T11:20:57.264Z,1.65
2023-01-01T11:23:34.782Z,1.95
2023-01-01T11:26:06.267Z,1.80
2023-01-01T11:28:36.717Z,2.17
2023-01-01T11:31:15.521Z,2.78
2023-01-01T11:33:52.837Z,2.08
2023-01-01T11:36:25.464Z,1.90
2023-01-01T11:39:06.654Z,2.05
2023-01-01T11:41:48.172Z,2.22
2023-01-01T11:44:27.738Z,1.70
2023-01-01T11:46:54.207Z,1.80
2023-01-01T11:49:25.199Z,1.58
2023-01-01T11:51:51.842Z,2.10
2023-01-01T11:54:36.039Z,2.22
2023-01-01T11:57:11.948Z,1.75
2023-01-01T11:59:59.338Z,1.60
2023-01-01T12:02:53.059Z,1.63
2023-01-01T12:05:25.661Z,1.52
2023-01-01T12:07:52.479Z,1.70
2023-01-01T12:10:30.094Z,2.15
2023-01-01T12:13:18.067Z,2.00
2023-01-01T12:16:02.405Z,1.75
2023-01-01T12:18:37.153Z,1.90
2023-01-01T12:21:24.899Z,1.60
2023-01-01T12:23:51.452Z,1.85
2023-01-01T12:26:29.529Z,2.03
2023-01-01T12:29:24.365Z,2.30
2023-01-01T12:32:14.058Z,2.00
2023-01-01T12:35:05.302Z,2.08
2023-01-01T12:37:46.425Z,1.80
2023-01-01T12:40:48.476Z,2.08
2023-01-01T12:43:38.847Z,1.95
2023-01-01T12:46:30.421Z,1.90
2023-01-01T12:49:22.465Z,1.73
2023-01-01T12:52:20.647Z,2.38
2023-01-01T12:55:08.050Z,1.90
2023-01-01T12:57:48.564Z,2.33
2023-01-01T13:00:18.239Z,2.22
2023-01-01T13:02:56.394Z,2.70
2023-01-01T13:05:27.490Z,2.25
2023-01-01T13:07:59.258Z,2.00
2023-01-01T13:10:36.713Z,2.17
2023-01-01T13:13:04.445Z,1.85
2023-01-01T13:15:40.447Z,2.28
2023-01-01T13:18:14.064Z,2.30
2023-01-01T13:20:53.643Z,1.58
2023-01-01T13:23:29.337Z,2.00
2023-01-01T13:26:17.701Z,1.73
2023-01-01T13:31:39.223Z,1.77
2023-01-01T13:34:31.275Z,2.08
2023-01-01T13:37:10.034Z,2.20
2023-01-01T13:40:13.942Z,2.53
2023-01-01T13:43:04.648Z,1.90
2023-01-01T13:49:12.034Z,1.98
2023-01-01T13:52:08.461Z,2.25
2023-01-01T13:55:05.590Z,2.50
2023-01-01T13:57:56.718Z,1.90
2023-01-01T14:00:32.338Z,1.67
2023-01-01T14:03:02.871Z,2.05
2023-01-01T14:05:34.035Z,1.92
2023-01-01T14:08:00.549Z,2.28
2023-01-01T14:10:31.404Z,2.70
2023-01-01T14:13:07.000Z,2.58
2023-01-01T14:15:36.321Z,2.67
2023-01-01T14:18:06.667Z,2.15
2023-01-01T14:20:48.972Z,2.70
2023-01-01T14:23:36.852Z,2.53
2023-01-01T14:26:15.380Z,1.88
2023-01-01T14:28:43.185Z,2.30
2023-01-01T14:31:14.111Z,2.45
2023-01-01T14:33:40.707Z,2.55
2023-01-01T14:36:17.763Z,2.28
2023-01-01T14:38:46.573Z,2.10
2023-01-01T14:41:19.005Z,2.15
2023-01-01T14:43:47.722Z,2.70
2023-01-01T14:46:18.450Z,2.35
2023-01-01T14:48:46.946Z,2.45
2023-01-01T14:51:20.346Z,2.90
2023-01-01T14:53:48.678Z,2.17
2023-01-01T14:56:26.742Z,3.30
2023-01-01T14:58:53.798Z,2.72
2023-01-01T15:01:26.476Z,1.88
2023-01-01T15:04:01.724Z,2.40
2023-01-01T15:06:29.241Z,2.63
2023-01-01T15:08:57.728Z,2.50
2023-01-01T15:11:29.089Z,2.17
2023-01-01T15:14:01.473Z,2.33
2023-01-01T15:16:33.306Z,2.08
2023-01-01T15:19:18.511Z,2.28
2023-01-01T15:21:45.513Z,2.30
2023-01-01T15:24:20.319Z,2.42
2023-01-01T15:26:56.350Z,2.05
2023-01-01T15:29:38.301Z,2.20
2023-01-01T15:32:07.436Z,2.10
2023-01-01T15:34:53.798Z,2.22
2023-01-01T15:37:32.189Z,2.13
2023-01-01T15:42:32.985Z,3.95
2023-01-01T15:45:23.386Z,3.00
2023-01-01T15:47:51.896Z,3.30
2023-01-01T15:53:01.200Z,4.75
2023-01-01T15:55:31.494Z,3.50
2023-01-01T15:57:58.631Z,3.08
2023-01-01T16:00:35.969Z,3.00
2023-01-01T16:03:17.549Z,2.67
2023-01-01T16:05:50.340Z,2.45
2023-01-01T16:08:17.492Z,2.35
2023-01-01T16:10:43.827Z,2.50
2023-01-01T16:13:12.877Z,2.67
2023-01-01T16:16:00.391Z,2.50
2023-01-01T16:18:38.042Z,2.63
2023-01-01T16:21:05.481Z,2.60
2023-01-01T16:23:31.884Z,2.92
2023-01-01T16:25:58.415Z,3.13
2023-01-01T16:28:24.833Z,3.70
2023-01-01T16:30:51.971Z,3.25
2023-01-01T16:33:21.558Z,3.20
2023-01-01T16:35:47.900Z,3.08
2023-01-01T16:38:14.758Z,2.63
2023-01-01T16:40:41.305Z,2.80
2023-01-01T16:43:16.158Z,2.88
2023-01-01T16:45:44.018Z,2.53
2023-01-01T16:48:10.487Z,3.90
2023-01-01T16:50:37.025Z,2.90
2023-01-01T16:53:03.572Z,2.58
2023-01-01T16:55:30.117Z,1.98
2023-01-01T16:58:21.190Z,1.77
2023-01-01T17:00:43.400Z,1.83
2023-01-01T17:03:10.005Z,1.70
2023-01-01T17:05:42.128Z,1.92
2023-01-01T17:08:10.362Z,1.58
2023-01-01T17:10:36.725Z,1.70
2023-01-01T17:13:03.316Z,2.90
2023-01-01T17:15:29.877Z,2.33
2023-01-01T17:17:57.739Z,2.08
2023-01-01T17:20:25.184Z,2.38
2023-01-01T17:22:51.635Z,1.40
2023-01-01T17:25:18.144Z,1.77
2023-01-01T17:27:47.584Z,1.85
2023-01-01T17:30:16.074Z,2.22
2023-01-01T17:32:42.464Z,2.03
2023-01-01T17:35:09.456Z,2.42
2023-01-01T17:37:35.859Z,1.85
2023-01-01T17:40:02.283Z,1.90
2023-01-01T17:42:29.062Z,2.15
2023-01-01T17:44:55.463Z,2.25
2023-01-01T17:47:24.538Z,2.13
2023-01-01T17:49:54.218Z,2.28
2023-01-01T17:52:20.833Z,2.20
2023-01-01T17:54:47.184Z,2.30
2023-01-01T17:57:13.568Z,2.20
2023-01-01T17:59:39.983Z,2.20
2023-01-01T18:02:13.410Z,2.55
2023-01-01T18:04:41.293Z,3.03
2023-01-01T18:07:07.822Z,3.08
2023-01-01T18:09:34.318Z,2.33
2023-01-01T18:12:01.277Z,3.20
2023-01-01T18:14:28.179Z,3.92
2023-01-01T18:16:54.541Z,6.15
2023-01-01T18:19:21.301Z,6.47
2023-01-01T18:21:47.833Z,4.05
2023-01-01T18:24:15.410Z,3.38
2023-01-01T18:26:42.469Z,3.40
2023-01-01T18:29:09.337Z,2.58
2023-01-01T18:31:36.524Z,2.58
2023-01-01T18:34:04.309Z,3.20
2023-01-01T18:36:32.744Z,3.08
2023-01-01T18:39:20.030Z,2.50
2023-01-01T18:41:49.285Z,2.58
2023-01-01T18:44:28.329Z,3.00
2023-01-01T18:47:11.651Z,3.10
2023-01-01T18:49:38.229Z,2.83
2023-01-01T18:52:07.653Z,3.15
2023-01-01T18:54:35.536Z,3.50
2023-01-01T18:57:12.069Z,3.78
2023-01-01T18:59:39.697Z,5.05
2023-01-01T19:02:29.508Z,4.57
2023-01-01T19:05:06.655Z,4.63
2023-01-01T19:07:33.039Z,5.50
2023-01-01T19:10:00.138Z,4.82
2023-01-01T19:12:28.586Z,5.45
2023-01-01T19:14:55.089Z,4.63
2023-01-01T19:17:23.473Z,5.15
2023-01-01T19:19:50.723Z,7.28
2023-01-01T19:22:33.122Z,6.13
2023-01-01T19:25:02.553Z,4.75
2023-01-01T19:27:34.076Z,5.57
2023-01-01T19:30:01.897Z,5.25
2023-01-01T19:32:29.314Z,4.88
2023-01-01T19:34:56.304Z,4.93
2023-01-01T19:37:22.824Z,4.45
2023-01-01T19:39:51.562Z,4.15
2023-01-01T19:42:18.290Z,4.18
2023-01-01T19:44:44.859Z,4.95
2023-01-01T19:47:11.173Z,4.38
2023-01-01T19:49:37.819Z,4.18
2023-01-01T19:52:04.341Z,4.18
2023-01-01T19:54:30.759Z,5.38
2023-01-01T19:56:57.268Z,4.40
2023-01-01T19:59:27.811Z,5.10
2023-01-01T20:02:35.005Z,4.07
2023-01-01T20:04:45.877Z,3.65
2023-01-01T20:07:15.607Z,4.25
2023-01-01T20:09:42.016Z,3.63
2023-01-01T20:12:08.446Z,4.03
2023-01-01T20:14:34.887Z,4.03
2023-01-01T20:17:02.413Z,4.10
2023-01-01T20:19:29.022Z,4.53
2023-01-01T20:22:13.927Z,5.72
2023-01-01T20:24:44.829Z,4.05
2023-01-01T20:27:14.719Z,3.75
2023-01-01T20:29:41.130Z,3.92
2023-01-01T20:32:15.553Z,4.70
2023-01-01T20:34:43.611Z,3.55
2023-01-01T20:37:28.567Z,3.63
2023-01-01T20:39:55.114Z,3.28
2023-01-01T20:42:21.595Z,3.72
2023-01-01T20:44:48.106Z,3.55
2023-01-01T20:47:14.830Z,5.20
2023-01-01T20:49:42.665Z,5.25
2023-01-01T20:52:09.164Z,5.07
2023-01-01T20:54:35.596Z,4.80
2023-01-01T20:57:01.979Z,4.25
2023-01-01T20:59:37.373Z,4.22
2023-01-01T21:02:07.140Z,4.13
2023-01-01T21:04:38.070Z,4.00
2023-01-01T21:07:06.210Z,3.92
2023-01-01T21:09:32.765Z,3.50
2023-01-01T21:12:01.248Z,3.85
2023-01-01T21:14:28.468Z,4.18
2023-01-01T21:16:55.031Z,4.05
2023-01-01T21:19:26.643Z,4.90
2023-01-01T21:21:55.894Z,4.25
2023-01-01T21:24:28.049Z,3.75
2023-01-01T21:27:17.377Z,4.40
2023-01-01T21:29:46.185Z,3.95
2023-01-01T21:32:18.886Z,4.75
2023-01-01T21:34:45.829Z,5.68
2023-01-01T21:37:42.442Z,4.28
2023-01-01T21:40:27.301Z,4.25
2023-01-01T21:43:05.813Z,5.30
2023-01-01T21:48:30.636Z,4.85
2023-01-01T21:50:57.186Z,3.97
2023-01-01T21:53:34.896Z,4.10
2023-01-01T21:56:24.253Z,3.55
2023-01-01T21:59:10.474Z,3.97
2023-01-01T22:01:43.402Z,3.90
2023-01-01T22:04:09.809Z,4.90
2023-01-01T22:06:44.947Z,4.47
2023-01-01T22:09:20.848Z,4.00
2023-01-01T22:11:49.080Z,5.20
2023-01-01T22:14:18.547Z,3.72
2023-01-01T22:16:47.491Z,4.40
2023-01-01T22:19:19.744Z,4.20
2023-01-01T22:21:47.061Z,3.60
2023-01-01T22:24:33.550Z,3.65
2023-01-01T22:27:29.477Z,3.97
2023-01-01T22:30:21.046Z,3.50
2023-01-01T22:32:52.212Z,3.85
2023-01-01T22:35:23.680Z,3.15
2023-01-01T22:37:55.684Z,4.18
2023-01-01T22:40:29.053Z,3.92
2023-01-01T22:43:10.345Z,4.03
2023-01-01T22:45:41.658Z,3.30
2023-01-01T22:48:16.546Z,3.45
2023-01-01T22:50:44.837Z,3.70
2023-01-01T22:53:11.205Z,3.78
2023-01-01T22:55:37.764Z,3.88
2023-01-01T22:58:04.164Z,3.40
2023-01-01T23:00:30.722Z,4.07
2023-01-01T23:02:57.186Z,4.30
2023-01-01T23:05:23.686Z,3.78
2023-01-01T23:07:50.144Z,3.60
2023-01-01T23:10:16.765Z,3.83
2023-01-01T23:12:43.140Z,3.75
2023-01-01T23:15:28.818Z,2.72
2023-01-01T23:17:55.328Z,3.25
2023-01-01T23:20:21.865Z,3.60
2023-01-01T23:22:52.076Z,3.25
2023-01-01T23:25:19.562Z,3.70
2023-01-01T23:27:47.429Z,4.72
2023-01-01T23:30:16.249Z,3.47
2023-01-01T23:32:42.874Z,2.80
2023-01-01T23:35:10.341Z,3.30
2023-01-01T23:37:37.656Z,3.58
2023-01-01T23:40:04.550Z,3.33
2023-01-01T23:42:30.927Z,3.42
2023-01-01T23:44:57.258Z,3.10
2023-01-01T23:47:23.669Z,3.03
2023-01-01T23:49:50.112Z,3.08
2023-01-01T23:52:16.565Z,3.85
2023-01-01T23:54:42.984Z,3.13
2023-01-01T23:57:09.530Z,2.92
2023-01-01T23:59:35.880Z,3.42
